Time;durP1;ratioP1;P1;durP2;ratioP2;P2;SDS_P1;SDS_P2;PMS_P1;PMS_P2;Temp;Humidity;BMP_temperature;BMP_pressure;BME280_temperature;BME280_humidity;BME280_pressure;Samples;Min_cycle;Max_cycle;Signal;HPM_P1;HPM_P2
2022/09/12 00:02:20;;;;;;;16.50;14.93;;;15.20;87.80;;;;;;5003432;28;20047;-74
2022/09/12 00:04:46;;;;;;;16.50;15.00;;;15.20;88.00;;;;;;5019743;28;20151;-74
2022/09/12 00:07:11;;;;;;;15.90;14.43;;;15.20;88.00;;;;;;4953603;29;20479;-73
2022/09/12 00:09:38;;;;;;;17.10;15.50;;;15.20;87.90;;;;;;5019868;28;20447;-73
2022/09/12 00:12:04;;;;;;;17.58;15.88;;;15.20;87.90;;;;;;5019431;28;20407;-73
2022/09/12 00:14:30;;;;;;;16.23;14.63;;;15.10;87.90;;;;;;5003326;28;20067;-74
2022/09/12 00:16:59;;;;;;;17.50;15.85;;;15.10;88.00;;;;;;5019437;28;20051;-74
2022/09/12 00:19:26;;;;;;;19.17;17.42;;;15.10;87.90;;;;;;5019624;28;20145;-73
2022/09/12 00:21:52;;;;;;;22.50;20.02;;;15.10;88.10;;;;;;5019610;28;20117;-74
2022/09/12 00:24:18;;;;;;;18.58;16.80;;;15.10;88.40;;;;;;5019543;28;20055;-74
2022/09/12 00:26:44;;;;;;;17.23;15.52;;;15.10;88.10;;;;;;5019364;28;20043;-73
2022/09/12 00:29:15;;;;;;;15.95;14.52;;;15.00;88.20;;;;;;5019679;28;20066;-74
2022/09/12 00:31:41;;;;;;;15.13;13.63;;;15.00;88.10;;;;;;5019527;28;20048;-74
2022/09/12 00:34:08;;;;;;;13.25;12.00;;;14.90;88.10;;;;;;5003093;28;20093;-74
2022/09/12 00:36:34;;;;;;;13.10;12.00;;;14.80;88.20;;;;;;5019471;28;20046;-74
2022/09/12 00:39:00;;;;;;;11.45;10.45;;;14.80;88.20;;;;;;5019645;28;20039;-73
2022/09/12 00:41:31;;;;;;;12.52;11.35;;;14.80;88.30;;;;;;5018797;28;20047;-73
2022/09/12 00:44:11;;;;;;;12.77;11.38;;;14.70;88.30;;;;;;5019273;28;20511;-73
2022/09/12 00:46:53;;;;;;;12.98;11.85;;;14.70;88.30;;;;;;5019308;28;20047;-75
2022/09/12 00:49:31;;;;;;;12.23;11.10;;;14.60;88.50;;;;;;5019422;28;20047;-74
2022/09/12 00:52:07;;;;;;;12.98;11.77;;;14.60;88.40;;;;;;5019007;28;20132;-74
2022/09/12 00:54:57;;;;;;;11.85;10.85;;;14.60;88.60;;;;;;5019163;28;20044;-73
2022/09/12 00:57:27;;;;;;;13.60;12.38;;;14.50;88.70;;;;;;5019080;28;20560;-74
2022/09/12 01:00:00;;;;;;;16.75;15.23;;;14.50;88.70;;;;;;5018989;28;20054;-74
2022/09/12 01:02:26;;;;;;;18.45;16.55;;;14.50;89.50;;;;;;5018987;28;20560;-75
2022/09/12 01:04:52;;;;;;;17.42;15.90;;;14.50;89.70;;;;;;5019052;28;20136;-73
2022/09/12 01:07:20;;;;;;;16.70;15.10;;;14.50;89.60;;;;;;5018976;28;20110;-75
2022/09/12 01:09:46;;;;;;;14.38;13.18;;;14.50;89.60;;;;;;5018916;28;20043;-73
2022/09/12 01:12:14;;;;;;;16.30;14.90;;;14.50;89.80;;;;;;5018809;28;20047;-76
2022/09/12 01:14:40;;;;;;;18.50;16.67;;;14.50;89.50;;;;;;5018862;28;20122;-72
2022/09/12 01:17:05;;;;;;;17.10;15.40;;;14.50;90.00;;;;;;5018954;28;20395;-74
2022/09/12 01:19:40;;;;;;;17.38;15.77;;;14.50;89.90;;;;;;5018653;28;20043;-74
2022/09/12 01:22:17;;;;;;;15.82;14.35;;;14.40;90.30;;;;;;5018597;28;20067;-73
2022/09/12 01:25:06;;;;;;;16.83;15.25;;;14.50;90.30;;;;;;5018959;28;20403;-72
2022/09/12 01:28:06;;;;;;;15.02;13.60;;;14.50;90.30;;;;;;5018989;28;20051;-73
2022/09/12 01:30:48;;;;;;;14.93;13.57;;;14.40;90.60;;;;;;5018688;28;20050;-73
2022/09/12 01:33:26;;;;;;;15.77;14.27;;;14.30;90.80;;;;;;5002358;28;20043;-73
2022/09/12 01:36:24;;;;;;;15.50;13.93;;;14.30;90.60;;;;;;5018471;28;20047;-73
2022/09/12 01:38:53;;;;;;;14.80;13.40;;;14.30;90.80;;;;;;5018685;28;20077;-74
2022/09/12 01:41:21;;;;;;;15.88;14.35;;;14.30;90.70;;;;;;5018680;28;20051;-73
2022/09/12 01:44:02;;;;;;;13.25;12.05;;;14.30;90.60;;;;;;5018736;28;20051;-74
2022/09/12 01:46:41;;;;;;;14.00;12.65;;;14.30;90.50;;;;;;5018414;28;20051;-73
2022/09/12 01:49:28;;;;;;;11.82;10.82;;;14.30;90.40;;;;;;5018340;28;20058;-74
2022/09/12 01:52:14;;;;;;;10.93;9.93;;;14.30;90.40;;;;;;5019266;28;20129;-74
2022/09/12 01:55:05;;;;;;;11.15;10.15;;;14.30;90.10;;;;;;4955547;29;20083;-73
2022/09/12 01:57:40;;;;;;;11.48;10.43;;;14.30;89.90;;;;;;5006056;28;20361;-75
2022/09/12 02:00:09;;;;;;;11.70;10.57;;;14.20;89.90;;;;;;5022509;28;20388;-74
2022/09/12 02:02:44;;;;;;;11.40;10.30;;;14.20;89.70;;;;;;5022315;28;20464;-73
2022/09/12 02:05:17;;;;;;;10.60;9.70;;;14.20;89.60;;;;;;5022133;28;20043;-73
2022/09/12 02:07:50;;;;;;;10.13;9.10;;;14.10;89.40;;;;;;5022409;28;20059;-72
2022/09/12 02:10:23;;;;;;;10.60;9.48;;;14.10;89.50;;;;;;5022130;28;20047;-73
2022/09/12 02:12:56;;;;;;;12.45;11.25;;;14.00;89.40;;;;;;5022359;28;20047;-73
2022/09/12 02:15:27;;;;;;;11.73;10.63;;;14.00;89.40;;;;;;5022307;28;20047;-74
2022/09/12 02:17:56;;;;;;;11.32;10.23;;;14.00;89.60;;;;;;5022280;28;20101;-72
2022/09/12 02:20:29;;;;;;;10.30;9.40;;;14.00;89.60;;;;;;5021904;28;20043;-73
2022/09/12 02:22:57;;;;;;;12.02;10.93;;;14.10;89.60;;;;;;5021890;28;20126;-74
2022/09/12 02:25:26;;;;;;;11.90;10.80;;;14.10;89.50;;;;;;5021591;28;20376;-74
2022/09/12 02:28:03;;;;;;;11.23;10.23;;;14.00;89.70;;;;;;5021938;28;20077;-72
2022/09/12 02:30:38;;;;;;;15.63;14.05;;;14.00;89.70;;;;;;5021969;28;20059;-74
2022/09/12 02:33:13;;;;;;;14.68;12.75;;;14.00;89.60;;;;;;5021910;28;20043;-75
2022/09/12 02:35:46;;;;;;;13.10;11.80;;;14.00;89.70;;;;;;5005145;28;20074;-73
2022/09/12 02:38:17;;;;;;;11.57;10.38;;;14.00;89.60;;;;;;5021960;28;20047;-74
2022/09/12 02:40:43;;;;;;;11.63;10.52;;;14.10;89.60;;;;;;5021698;28;20129;-74
2022/09/12 02:43:09;;;;;;;13.65;12.25;;;14.10;89.70;;;;;;5021686;28;20425;-73
2022/09/12 02:45:35;;;;;;;13.70;12.27;;;14.10;89.60;;;;;;5021255;28;20083;-73
2022/09/12 02:48:16;;;;;;;11.55;10.35;;;14.10;89.90;;;;;;5021514;28;20051;-74
2022/09/12 02:50:42;;;;;;;11.60;10.48;;;14.20;89.80;;;;;;5021412;28;20563;-73
2022/09/12 02:53:09;;;;;;;10.73;9.80;;;14.20;89.70;;;;;;5021405;28;20071;-73
2022/09/12 02:55:37;;;;;;;9.88;8.88;;;14.10;89.70;;;;;;4954661;29;20491;-74
2022/09/12 02:58:08;;;;;;;9.25;8.35;;;14.10;89.60;;;;;;4954792;28;20049;-73
2022/09/12 03:00:56;;;;;;;9.88;9.00;;;14.10;89.40;;;;;;5021394;28;20470;-73
2022/09/12 03:03:58;;;;;;;10.27;8.90;;;14.00;89.40;;;;;;5019764;28;20047;-74
2022/09/12 03:06:36;;;;;;;12.38;11.27;;;14.00;89.40;;;;;;5021215;28;20043;-74
2022/09/12 03:09:17;;;;;;;9.85;8.95;;;14.10;89.60;;;;;;5020922;28;20069;-74
2022/09/12 03:12:18;;;;;;;8.75;7.85;;;14.00;89.40;;;;;;5020959;28;20083;-73
2022/09/12 03:14:53;;;;;;;9.13;8.35;;;14.00;89.30;;;;;;5013073;28;20074;-72
2022/09/12 03:17:21;;;;;;;9.10;8.20;;;13.90;89.20;;;;;;5021140;28;20044;-75
2022/09/12 03:20:08;;;;;;;10.60;9.65;;;13.90;89.20;;;;;;5020921;28;20047;-72
2022/09/12 03:22:52;;;;;;;12.40;11.23;;;13.80;89.30;;;;;;5020934;28;20393;-72
2022/09/12 03:25:34;;;;;;;13.23;12.02;;;13.80;89.60;;;;;;5020568;28;20058;-73
2022/09/12 03:28:08;;;;;;;12.30;11.05;;;13.80;89.80;;;;;;5020586;28;20051;-75
2022/09/12 03:30:42;;;;;;;12.38;11.23;;;13.80;89.80;;;;;;5020863;28;20086;-73
2022/09/12 03:33:13;;;;;;;13.13;11.80;;;13.80;89.90;;;;;;5004144;28;20051;-74
2022/09/12 03:35:39;;;;;;;14.32;12.88;;;13.80;89.80;;;;;;5020758;28;20126;-74
2022/09/12 03:38:06;;;;;;;12.88;11.68;;;13.80;90.20;;;;;;5020684;28;20086;-74
2022/09/12 03:40:33;;;;;;;15.27;13.60;;;13.70;90.00;;;;;;5020733;28;20051;-74
2022/09/12 03:42:59;;;;;;;17.30;15.52;;;13.80;89.80;;;;;;5020514;28;20082;-77
2022/09/12 03:45:24;;;;;;;16.50;14.32;;;13.70;90.10;;;;;;5020396;28;20102;-73
2022/09/12 03:47:50;;;;;;;17.35;15.55;;;13.70;90.20;;;;;;5020366;28;20376;-73
2022/09/12 03:50:16;;;;;;;18.65;16.08;;;13.70;90.20;;;;;;5020165;28;20047;-74
2022/09/12 03:52:42;;;;;;;21.45;18.60;;;13.70;90.50;;;;;;5003795;28;20055;-77
2022/09/12 03:55:08;;;;;;;19.10;16.40;;;13.70;90.90;;;;;;5020309;28;20035;-74
2022/09/12 03:57:34;;;;;;;19.10;17.02;;;13.70;91.00;;;;;;4953738;29;20084;-75
2022/09/12 04:00:00;;;;;;;21.23;18.05;;;13.70;91.10;;;;;;5020197;28;20081;-73
2022/09/12 04:02:27;;;;;;;21.75;18.60;;;13.60;91.50;;;;;;5020430;28;20075;-74
2022/09/12 04:04:53;;;;;;;26.65;18.35;;;13.70;91.30;;;;;;5020090;28;20154;-75
2022/09/12 04:07:19;;;;;;;24.40;19.38;;;13.60;91.60;;;;;;5020172;28;20499;-74
2022/09/12 04:09:45;;;;;;;17.27;15.10;;;13.70;92.00;;;;;;5003590;28;20043;-74
2022/09/12 04:12:11;;;;;;;18.25;16.35;;;13.60;91.70;;;;;;5019863;28;20051;-75
2022/09/12 04:14:37;;;;;;;22.83;19.17;;;13.60;92.10;;;;;;5019786;28;20101;-72
2022/09/12 04:17:03;;;;;;;24.23;20.63;;;13.70;92.00;;;;;;5019981;28;20074;-73
2022/09/12 04:19:29;;;;;;;23.60;20.02;;;13.70;92.00;;;;;;5020014;28;20073;-74
2022/09/12 04:21:54;;;;;;;27.63;22.10;;;13.70;92.20;;;;;;5002906;28;20084;-73
2022/09/12 04:24:20;;;;;;;25.13;21.55;;;13.70;92.10;;;;;;5019791;28;20057;-73
2022/09/12 04:26:46;;;;;;;26.45;21.48;;;13.70;92.60;;;;;;5019545;28;20047;-72
2022/09/12 04:29:13;;;;;;;28.98;23.15;;;13.80;92.70;;;;;;5019590;28;20051;-73
2022/09/12 04:31:39;;;;;;;22.50;18.10;;;13.80;92.50;;;;;;5019551;28;20051;-72
2022/09/12 04:34:06;;;;;;;26.85;22.80;;;13.90;92.30;;;;;;5019400;28;20085;-74
2022/09/12 04:36:33;;;;;;;23.73;20.02;;;14.00;92.00;;;;;;5019384;28;20050;-73
2022/09/12 04:38:59;;;;;;;30.63;24.35;;;14.00;92.00;;;;;;5019609;28;20047;-74
2022/09/12 04:41:31;;;;;;;27.85;22.35;;;14.00;92.20;;;;;;5019466;28;20105;-72
2022/09/12 04:44:02;;;;;;;25.92;22.60;;;14.00;91.80;;;;;;5019359;28;20082;-72
2022/09/12 04:46:33;;;;;;;26.85;22.58;;;14.10;91.70;;;;;;5019495;28;20039;-73
2022/09/12 04:48:58;;;;;;;26.70;23.23;;;14.10;91.70;;;;;;4960988;28;20047;-73
2022/09/12 04:51:27;;;;;;;26.80;21.75;;;14.10;91.60;;;;;;5002810;28;20043;-73
2022/09/12 04:53:56;;;;;;;27.08;22.92;;;14.20;91.50;;;;;;5018692;28;20540;-76
2022/09/12 04:56:22;;;;;;;21.73;18.45;;;14.20;91.30;;;;;;5018763;28;20074;-73
2022/09/12 04:58:48;;;;;;;25.70;22.52;;;14.30;91.50;;;;;;5019069;28;20042;-74
2022/09/12 05:01:19;;;;;;;33.25;25.00;;;14.30;91.70;;;;;;5018908;28;20051;-74
2022/09/12 05:03:47;;;;;;;30.17;25.13;;;14.30;91.40;;;;;;5019102;28;20055;-75
2022/09/12 05:06:19;;;;;;;34.10;25.98;;;14.40;91.60;;;;;;5019117;28;20062;-72
2022/09/12 05:08:45;;;;;;;33.58;24.83;;;14.40;91.40;;;;;;5019075;28;20047;-74
2022/09/12 05:11:15;;;;;;;27.00;23.40;;;14.40;91.30;;;;;;5019169;28;20400;-74
2022/09/12 05:13:41;;;;;;;28.30;23.00;;;14.50;91.20;;;;;;5018915;28;20126;-73
2022/09/12 05:16:09;;;;;;;28.70;24.67;;;14.50;91.50;;;;;;5018740;28;20070;-72
2022/09/12 05:18:35;;;;;;;28.27;24.90;;;14.50;91.50;;;;;;4952791;29;20089;-73
2022/09/12 05:21:03;;;;;;;27.65;23.77;;;14.50;92.00;;;;;;5018795;28;20051;-73
2022/09/12 05:23:29;;;;;;;22.52;19.08;;;14.50;91.80;;;;;;5018576;28;20059;-73
2022/09/12 05:25:57;;;;;;;31.58;25.98;;;14.50;91.70;;;;;;5002306;28;20047;-75
2022/09/12 05:28:24;;;;;;;27.25;23.20;;;14.50;92.20;;;;;;5018511;28;20070;-72
2022/09/12 05:31:23;;;;;;;30.40;25.80;;;14.50;92.40;;;;;;5002221;28;20054;-76
2022/09/12 05:33:51;;;;;;;26.60;23.17;;;14.50;92.30;;;;;;5007941;28;20513;-75
2022/09/12 05:36:19;;;;;;;27.77;24.20;;;14.50;91.80;;;;;;5002117;28;20118;-73
2022/09/12 05:38:46;;;;;;;30.15;24.98;;;14.60;92.10;;;;;;5021478;28;20041;-74
2022/09/12 05:41:23;;;;;;;30.20;24.88;;;14.60;92.20;;;;;;5027124;28;20043;-73
2022/09/12 05:43:54;;;;;;;32.13;25.15;;;14.70;92.30;;;;;;5038323;28;20061;-76
2022/09/12 05:46:23;;;;;;;35.58;25.45;;;14.60;92.20;;;;;;5032756;28;20596;-74
2022/09/12 05:48:49;;;;;;;24.13;21.52;;;14.70;92.00;;;;;;5028243;28;20083;-75
2022/09/12 05:51:26;;;;;;;29.77;22.25;;;14.70;91.70;;;;;;5028014;28;20056;-75
2022/09/12 05:53:58;;;;;;;31.88;24.98;;;14.70;91.50;;;;;;5005598;28;20054;-73
2022/09/12 05:56:26;;;;;;;27.67;24.05;;;14.80;91.60;;;;;;5023889;28;20127;-71
2022/09/12 05:59:01;;;;;;;29.63;25.75;;;14.80;91.50;;;;;;5022858;28;20089;-74
2022/09/12 06:01:28;;;;;;;30.23;25.48;;;14.90;91.50;;;;;;5026822;28;20800;-71
2022/09/12 06:03:56;;;;;;;33.28;26.60;;;14.90;91.70;;;;;;5018223;28;20059;-73
2022/09/12 06:06:23;;;;;;;27.95;24.15;;;14.90;92.00;;;;;;5021065;28;20046;-74
2022/09/12 06:08:56;;;;;;;37.97;26.27;;;14.90;91.80;;;;;;5023541;28;20090;-72
2022/09/12 06:11:27;;;;;;;28.20;23.55;;;15.00;91.70;;;;;;5021452;28;20065;-75
2022/09/12 06:13:54;;;;;;;32.97;23.70;;;14.90;92.10;;;;;;5008968;28;20079;-73
2022/09/12 06:16:22;;;;;;;32.92;24.83;;;14.90;92.20;;;;;;5019773;28;20080;-77
2022/09/12 06:18:51;;;;;;;30.00;24.05;;;15.00;92.20;;;;;;5023632;28;20090;-73
2022/09/12 06:21:17;;;;;;;31.60;25.73;;;15.00;92.10;;;;;;5017012;28;20134;-74
2022/09/12 06:23:45;;;;;;;30.55;25.05;;;15.00;92.20;;;;;;5006648;28;20506;-73
2022/09/12 06:26:11;;;;;;;31.70;24.65;;;15.00;92.00;;;;;;5017755;28;20050;-74
2022/09/12 06:28:40;;;;;;;34.83;24.80;;;15.10;91.80;;;;;;5026646;28;20086;-74
2022/09/12 06:31:14;;;;;;;26.88;23.20;;;15.10;91.70;;;;;;5020371;28;20047;-74
2022/09/12 06:33:43;;;;;;;29.65;24.65;;;15.10;91.50;;;;;;5022319;28;20066;-74
2022/09/12 06:36:15;;;;;;;29.00;23.52;;;15.20;91.50;;;;;;5021861;28;21625;-76
2022/09/12 06:38:41;;;;;;;29.40;22.85;;;15.20;92.10;;;;;;5023531;28;20458;-75
2022/09/12 06:41:11;;;;;;;28.10;25.08;;;15.30;91.90;;;;;;5024510;28;20486;-73
2022/09/12 06:43:37;;;;;;;28.98;24.95;;;15.30;91.70;;;;;;5024060;28;20055;-74
2022/09/12 06:46:04;;;;;;;27.92;22.77;;;15.30;91.80;;;;;;5020223;28;20043;-73
2022/09/12 06:48:30;;;;;;;25.80;22.08;;;15.40;91.80;;;;;;5020277;28;20086;-75
2022/09/12 06:51:01;;;;;;;26.92;24.02;;;15.50;91.60;;;;;;5020911;28;20496;-74
2022/09/12 06:53:29;;;;;;;29.35;24.90;;;15.40;91.30;;;;;;5021106;28;20039;-73
2022/09/12 06:55:56;;;;;;;32.67;24.90;;;15.50;91.30;;;;;;5020916;28;20069;-74
2022/09/12 06:58:23;;;;;;;32.05;26.55;;;15.50;91.30;;;;;;5020911;28;20044;-77
2022/09/12 07:00:48;;;;;;;34.72;26.15;;;15.60;91.40;;;;;;5020641;28;20057;-75
2022/09/12 07:03:14;;;;;;;32.15;26.00;;;15.50;91.50;;;;;;5021093;28;20065;-77
2022/09/12 07:05:40;;;;;;;33.20;27.25;;;15.60;91.40;;;;;;5020677;28;20039;-74
2022/09/12 07:08:05;;;;;;;34.83;25.55;;;15.60;91.30;;;;;;5020523;28;20109;-74
2022/09/12 07:10:31;;;;;;;32.10;25.10;;;15.60;91.40;;;;;;5020594;28;20514;-74
2022/09/12 07:12:57;;;;;;;30.48;24.77;;;15.60;91.30;;;;;;5021048;28;20506;-73
2022/09/12 07:15:23;;;;;;;32.40;25.40;;;15.70;91.20;;;;;;5020699;28;20058;-78
2022/09/12 07:17:49;;;;;;;35.47;27.02;;;15.70;91.20;;;;;;5021224;28;20043;-76
2022/09/12 07:20:15;;;;;;;38.30;28.90;;;15.80;90.90;;;;;;5006959;28;20399;-77
2022/09/12 07:22:41;;;;;;;39.60;29.10;;;15.90;91.30;;;;;;5020490;28;20148;-77
2022/09/12 07:25:07;;;;;;;34.80;27.63;;;15.80;91.60;;;;;;5020164;28;20101;-75
2022/09/12 07:27:33;;;;;;;32.63;27.83;;;16.00;91.70;;;;;;5020106;28;20054;-77
2022/09/12 07:29:59;;;;;;;38.10;29.02;;;16.00;91.60;;;;;;5020384;28;20129;-77
2022/09/12 07:32:25;;;;;;;35.60;29.58;;;16.00;91.20;;;;;;5020290;28;20138;-76
2022/09/12 07:34:51;;;;;;;39.58;30.50;;;16.00;91.10;;;;;;5020038;28;20128;-74
2022/09/12 07:37:17;;;;;;;37.67;30.75;;;16.10;91.20;;;;;;5020224;28;20138;-76
2022/09/12 07:39:42;;;;;;;35.05;27.88;;;16.20;91.00;;;;;;5020163;28;20070;-76
2022/09/12 07:42:10;;;;;;;36.90;28.90;;;16.20;90.90;;;;;;5020218;28;20057;-74
2022/09/12 07:44:35;;;;;;;35.88;28.88;;;16.30;90.80;;;;;;5003758;28;20057;-76
2022/09/12 07:47:01;;;;;;;40.55;32.85;;;16.40;90.50;;;;;;5019763;28;20039;-77
2022/09/12 07:49:27;;;;;;;38.75;31.27;;;16.40;90.50;;;;;;5019533;28;20047;-77
2022/09/12 07:51:53;;;;;;;46.05;34.45;;;16.50;90.40;;;;;;5019768;28;20500;-77
2022/09/12 07:54:19;;;;;;;50.58;36.03;;;16.50;90.40;;;;;;5020447;28;20047;-75
2022/09/12 07:56:44;;;;;;;51.28;35.78;;;16.60;90.00;;;;;;5019536;28;20035;-76
2022/09/12 07:59:10;;;;;;;41.83;32.00;;;16.70;90.10;;;;;;5019954;28;20049;-74
2022/09/12 08:01:36;;;;;;;45.72;36.00;;;16.70;90.00;;;;;;5019653;28;20047;-75
2022/09/12 08:04:05;;;;;;;48.55;37.35;;;16.80;89.90;;;;;;5003044;28;20051;-75
2022/09/12 08:06:32;;;;;;;49.95;36.67;;;16.90;89.30;;;;;;5022259;28;20059;-77
2022/09/12 08:08:58;;;;;;;51.67;36.63;;;17.00;89.10;;;;;;5029717;28;20043;-76
2022/09/12 08:11:27;;;;;;;49.38;37.15;;;17.10;88.80;;;;;;5030050;28;20070;-77
2022/09/12 08:13:54;;;;;;;49.60;38.20;;;17.20;88.40;;;;;;5039705;28;20501;-74
2022/09/12 08:16:21;;;;;;;46.83;35.25;;;17.30;88.20;;;;;;5039083;28;20070;-77
2022/09/12 08:18:48;;;;;;;52.70;39.13;;;17.40;87.90;;;;;;5039094;28;20118;-76
2022/09/12 08:21:17;;;;;;;52.17;38.22;;;17.50;87.80;;;;;;5023010;28;20061;-76
2022/09/12 08:23:43;;;;;;;54.28;38.80;;;17.50;87.80;;;;;;5052351;28;20061;-75
2022/09/12 08:26:10;;;;;;;49.17;38.58;;;17.70;87.80;;;;;;5052562;28;20083;-75
2022/09/12 08:28:38;;;;;;;50.72;39.05;;;17.70;87.60;;;;;;5052454;28;20051;-73
2022/09/12 08:31:06;;;;;;;51.45;40.15;;;17.80;86.70;;;;;;5052345;28;20117;-76
2022/09/12 08:33:33;;;;;;;52.60;39.58;;;17.90;86.80;;;;;;5036252;28;20095;-76
2022/09/12 08:36:09;;;;;;;56.88;42.95;;;17.90;86.10;;;;;;5052281;28;20049;-75
2022/09/12 08:38:36;;;;;;;52.58;41.17;;;17.90;86.30;;;;;;5052519;28;20041;-75
2022/09/12 08:41:17;;;;;;;55.05;42.50;;;18.00;86.20;;;;;;5035788;28;20047;-76
2022/09/12 08:44:23;;;;;;;64.32;43.40;;;18.00;86.30;;;;;;5052345;28;20037;-76
2022/09/12 08:47:18;;;;;;;58.13;45.42;;;18.00;86.10;;;;;;5052249;28;20056;-79
2022/09/12 08:49:59;;;;;;;57.55;41.75;;;18.00;86.30;;;;;;5041516;28;20415;-75
2022/09/12 08:52:50;;;;;;;58.17;42.70;;;18.20;86.20;;;;;;5052187;28;20056;-77
2022/09/12 08:55:32;;;;;;;54.10;42.35;;;18.30;85.80;;;;;;5052012;28;20481;-77
2022/09/12 08:58:00;;;;;;;60.88;44.25;;;18.40;85.60;;;;;;5052182;28;20083;-77
2022/09/12 09:00:41;;;;;;;63.00;44.03;;;18.50;85.40;;;;;;5051973;28;20493;-75
2022/09/12 09:03:22;;;;;;;62.70;44.22;;;18.50;84.70;;;;;;5051525;28;20053;-76
2022/09/12 09:06:02;;;;;;;57.90;43.05;;;18.60;84.90;;;;;;5051984;28;20041;-77
2022/09/12 09:08:42;;;;;;;56.30;38.42;;;18.60;84.70;;;;;;5035582;28;20404;-78
2022/09/12 09:11:17;;;;;;;54.05;39.67;;;18.70;84.50;;;;;;5051906;28;20397;-75
2022/09/12 09:16:45;;;;;;;59.33;42.17;;;18.70;83.80;;;;;;5051571;28;20051;-78
2022/09/12 09:19:22;;;;;;;53.05;39.33;;;18.80;83.20;;;;;;5051891;28;20033;-74
2022/09/12 09:22:11;;;;;;;52.63;37.55;;;18.90;83.20;;;;;;5051443;28;20057;-77
2022/09/12 09:24:54;;;;;;;47.42;36.13;;;19.00;83.40;;;;;;5051548;28;20053;-75
2022/09/12 09:27:28;;;;;;;47.67;34.92;;;19.20;82.80;;;;;;5051610;28;20040;-75
2022/09/12 09:29:54;;;;;;;48.28;33.78;;;19.40;81.80;;;;;;5034880;28;20049;-78
2022/09/12 09:32:35;;;;;;;44.88;32.58;;;19.70;82.00;;;;;;5051238;28;20041;-77
2022/09/12 09:35:36;;;;;;;42.08;32.15;;;19.90;81.90;;;;;;5051590;28;20044;-74
2022/09/12 09:38:17;;;;;;;41.38;30.38;;;20.10;79.90;;;;;;4984757;28;20095;-76
2022/09/12 09:41:22;;;;;;;38.28;29.83;;;20.20;78.40;;;;;;5051435;28;20040;-78
2022/09/12 09:43:47;;;;;;;36.67;26.92;;;20.30;77.70;;;;;;5051754;28;20397;-77
2022/09/12 09:46:14;;;;;;;43.58;27.75;;;20.50;78.70;;;;;;5051327;28;20041;-75
2022/09/12 09:48:44;;;;;;;33.35;24.50;;;20.50;77.40;;;;;;5035066;28;20041;-77
2022/09/12 09:51:10;;;;;;;22.67;17.95;;;20.60;77.20;;;;;;5051328;28;20531;-75
2022/09/12 09:53:44;;;;;;;25.73;20.50;;;20.70;76.40;;;;;;5051495;28;20037;-75
2022/09/12 09:56:32;;;;;;;23.73;18.00;;;20.80;74.30;;;;;;5051340;28;20047;-75
2022/09/12 09:59:17;;;;;;;22.30;18.92;;;20.70;74.80;;;;;;5051128;28;20453;-74
2022/09/12 10:01:45;;;;;;;25.30;20.10;;;20.90;74.40;;;;;;5051364;28;20178;-76
2022/09/12 10:04:26;;;;;;;27.15;21.45;;;21.10;74.10;;;;;;5051332;28;20047;-76
2022/09/12 10:06:56;;;;;;;27.63;21.15;;;21.30;71.80;;;;;;5051261;28;20045;-75
2022/09/12 10:09:25;;;;;;;29.33;22.08;;;21.40;72.70;;;;;;5051163;28;20045;-75
2022/09/12 10:11:53;;;;;;;28.02;21.52;;;21.50;70.90;;;;;;5051549;28;20377;-75
2022/09/12 10:14:33;;;;;;;30.60;23.35;;;21.50;72.00;;;;;;5054937;28;20040;-76
2022/09/12 10:17:02;;;;;;;28.70;22.42;;;21.70;71.50;;;;;;5055074;28;20123;-75
2022/09/12 10:19:39;;;;;;;29.35;20.65;;;21.70;71.20;;;;;;5055062;28;20041;-75
2022/09/12 10:22:06;;;;;;;26.10;21.02;;;21.90;71.40;;;;;;5054869;28;20057;-76
2022/09/12 10:24:42;;;;;;;25.90;20.25;;;22.00;69.50;;;;;;5055026;28;20048;-77
2022/09/12 10:27:10;;;;;;;27.30;20.40;;;22.10;70.20;;;;;;5038599;28;20063;-76
2022/09/12 10:29:58;;;;;;;22.15;17.35;;;22.10;67.40;;;;;;5055147;28;20044;-74
2022/09/12 10:32:35;;;;;;;25.52;18.75;;;22.00;66.20;;;;;;5054714;28;20508;-76
2022/09/12 10:35:26;;;;;;;22.63;18.83;;;22.00;67.00;;;;;;5038273;28;20033;-75
2022/09/12 10:38:11;;;;;;;22.05;17.02;;;22.10;67.60;;;;;;5054888;28;20040;-75
2022/09/12 10:40:40;;;;;;;27.45;19.90;;;22.20;66.60;;;;;;5054639;28;20554;-75
2022/09/12 10:43:26;;;;;;;28.63;20.70;;;22.40;66.30;;;;;;5054668;28;20045;-75
2022/09/12 10:45:56;;;;;;;29.73;19.63;;;22.30;67.30;;;;;;5054808;28;20055;-75
2022/09/12 10:48:32;;;;;;;23.38;17.67;;;22.60;67.90;;;;;;5054871;28;20052;-75
2022/09/12 10:50:59;;;;;;;24.13;16.92;;;22.80;66.40;;;;;;5054530;28;20179;-76
2022/09/12 10:53:39;;;;;;;25.58;17.77;;;22.90;66.50;;;;;;5054726;28;20599;-76
2022/09/12 10:56:18;;;;;;;24.25;18.00;;;22.90;65.60;;;;;;5054379;28;20037;-76
2022/09/12 10:59:02;;;;;;;17.98;15.50;;;22.70;64.60;;;;;;5054398;28;20430;-76
2022/09/12 11:01:31;;;;;;;;;;;22.80;64.80;;;;;;5054736;28;20102;-76
2022/09/12 11:04:00;;;;;;;21.13;17.67;;;22.80;64.40;;;;;;5054325;28;19962;-75
2022/09/12 11:06:55;;;;;;;25.65;19.40;;;22.70;66.20;;;;;;5054115;28;20044;-76
2022/09/12 11:09:43;;;;;;;26.10;19.77;;;22.60;65.70;;;;;;5054267;28;20041;-76
2022/09/12 11:12:12;;;;;;;20.95;17.30;;;22.70;66.90;;;;;;5054202;28;20378;-75
2022/09/12 11:15:05;;;;;;;14.32;11.25;;;22.70;65.80;;;;;;5054076;28;20045;-77
2022/09/12 11:17:54;;;;;;;12.52;9.55;;;22.80;65.10;;;;;;5037680;28;20037;-78
2022/09/12 11:20:37;;;;;;;12.43;10.25;;;22.70;62.60;;;;;;5054203;28;20083;-77
2022/09/12 11:23:03;;;;;;;11.13;8.35;;;22.70;62.70;;;;;;5053760;28;20049;-77
2022/09/12 11:25:47;;;;;;;12.40;9.18;;;22.50;61.30;;;;;;5053343;28;20140;-75
2022/09/12 11:28:24;;;;;;;14.73;11.93;;;22.50;63.00;;;;;;5037226;28;20045;-77
2022/09/12 11:31:37;;;;;;;14.05;11.75;;;22.40;63.00;;;;;;5053705;28;21944;-76
2022/09/12 11:34:09;;;;;;;12.65;8.68;;;22.70;64.00;;;;;;5053991;28;20116;-75
2022/09/12 11:37:03;;;;;;;9.63;8.57;;;22.80;63.50;;;;;;5053581;28;20040;-74
2022/09/12 11:39:39;;;;;;;8.38;7.47;;;22.90;61.80;;;;;;5053514;28;20481;-77
2022/09/12 11:42:11;;;;;;;9.73;8.73;;;23.20;61.70;;;;;;5053857;28;20048;-76
2022/09/12 11:44:45;;;;;;;9.98;8.20;;;23.40;61.30;;;;;;5053579;28;20175;-76
2022/09/12 11:47:12;;;;;;;10.68;8.63;;;23.50;59.80;;;;;;5053437;28;20044;-76
2022/09/12 11:49:47;;;;;;;8.85;7.95;;;23.50;60.30;;;;;;5053687;28;20531;-77
2022/09/12 11:52:17;;;;;;;12.00;8.40;;;23.70;59.80;;;;;;5053396;28;20401;-76
2022/09/12 11:55:02;;;;;;;9.13;7.28;;;23.50;59.20;;;;;;5053284;28;20051;-75
2022/09/12 11:57:38;;;;;;;7.50;6.75;;;23.30;58.90;;;;;;5053361;28;20520;-78
2022/09/12 12:00:14;;;;;;;5.90;4.70;;;23.30;59.80;;;;;;5053303;28;20041;-76
2022/09/12 12:02:56;;;;;;;8.60;5.28;;;23.30;59.60;;;;;;5053275;28;20174;-75
2022/09/12 12:05:41;;;;;;;6.85;5.35;;;23.30;59.50;;;;;;5053365;28;20393;-76
2022/09/12 12:08:08;;;;;;;8.52;5.93;;;23.30;58.60;;;;;;5053467;28;20445;-77
2022/09/12 12:10:38;;;;;;;9.65;7.57;;;23.40;59.50;;;;;;5052927;28;20037;-75
2022/09/12 12:13:16;;;;;;;8.07;7.18;;;23.30;59.70;;;;;;5053282;28;20037;-75
2022/09/12 12:16:11;;;;;;;7.90;6.85;;;23.40;59.90;;;;;;5053166;28;20110;-75
2022/09/12 12:18:38;;;;;;;9.30;7.53;;;23.60;59.90;;;;;;5053202;28;20143;-76
2022/09/12 12:21:39;;;;;;;7.55;6.10;;;23.70;60.20;;;;;;5052847;28;20044;-76
2022/09/12 12:24:08;;;;;;;6.22;5.63;;;23.60;59.60;;;;;;5052797;28;20059;-75
2022/09/12 12:26:40;;;;;;;8.98;6.97;;;23.80;59.70;;;;;;5052663;28;20489;-76
2022/09/12 12:29:39;;;;;;;7.55;6.28;;;24.00;59.10;;;;;;5052609;28;20045;-75
2022/09/12 12:32:05;;;;;;;10.35;7.90;;;24.10;57.30;;;;;;5052767;28;20375;-74
2022/09/12 12:34:35;;;;;;;7.93;7.13;;;24.20;58.10;;;;;;5052818;28;20119;-74
2022/09/12 12:37:20;;;;;;;8.88;7.30;;;24.40;58.40;;;;;;5051762;28;20110;-77
2022/09/12 12:39:52;;;;;;;;;;;24.60;57.80;;;;;;5053164;28;20040;-76
2022/09/12 12:42:33;;;;;;;7.78;6.13;;;24.50;56.10;;;;;;5035875;28;19923;-77
2022/09/12 12:45:08;;;;;;;7.85;7.03;;;24.70;56.20;;;;;;5052381;28;20048;-76
2022/09/12 12:47:37;;;;;;;8.70;7.80;;;24.60;56.70;;;;;;5052282;28;20127;-77
2022/09/12 12:50:22;;;;;;;11.10;8.60;;;24.70;56.80;;;;;;5052287;28;20041;-77
2022/09/12 12:52:52;;;;;;;11.10;7.90;;;24.60;57.60;;;;;;5052192;28;20099;-77
2022/09/12 12:55:41;;;;;;;9.98;8.18;;;24.70;57.00;;;;;;5052132;28;20447;-76
2022/09/12 12:58:19;;;;;;;8.23;6.72;;;24.80;57.10;;;;;;5052125;28;20044;-77
2022/09/12 13:00:46;;;;;;;9.98;7.78;;;24.70;57.00;;;;;;5035536;28;20047;-76
2022/09/12 13:03:30;;;;;;;10.23;7.75;;;24.60;56.80;;;;;;5052050;28;20033;-75